Terminal Aerodrome Forecast
Issued by NWS

Home | Current Version | Previous Version | Text Only | Print | Product List | Glossary On
Versions: 1 2 3 4 5 6 7 8 9 10 11 12 13 14 15 16
673
FTUS42 KMLB 092335 CCA
TAFTIX
TAF COR
KTIX 092335Z 1000/1024 25011G18KT P6SM BKN050
     FM100300 29010KT P6SM FEW050 SCT250
     FM101400 30015G23KT P6SM SKC
      AMD NOT SKED 1002/1012=

USA.gov is the U.S. government's official web portal to all federal, state and local government web resources and services.